createdAt,value
2022-10-10T00:01:20.850Z,100.00
2022-10-10T00:03:47.822Z,100.00
2022-10-10T00:06:15.938Z,100.00
2022-10-10T00:08:42.837Z,100.00
2022-10-10T00:11:09.883Z,100.00
2022-10-10T00:13:36.703Z,100.00
2022-10-10T00:16:03.568Z,100.00
2022-10-10T00:18:31.071Z,100.00
2022-10-10T00:20:57.645Z,100.00
2022-10-10T00:23:24.539Z,100.00
2022-10-10T00:25:51.764Z,100.00
2022-10-10T00:28:18.558Z,100.00
2022-10-10T00:30:45.354Z,100.00
2022-10-10T00:33:11.982Z,100.00
2022-10-10T00:35:39.267Z,100.00
2022-10-10T00:38:05.814Z,100.00
2022-10-10T00:40:32.774Z,100.00
2022-10-10T00:42:59.714Z,100.00
2022-10-10T00:45:39.027Z,100.00
2022-10-10T00:48:35.255Z,100.00
2022-10-10T00:51:06.372Z,100.00
2022-10-10T00:53:37.929Z,100.00
2022-10-10T00:56:06.149Z,100.00
2022-10-10T00:58:34.520Z,100.00
2022-10-10T01:01:01.108Z,100.00
2022-10-10T01:03:27.811Z,100.00
2022-10-10T01:05:54.657Z,100.00
2022-10-10T01:08:21.950Z,100.00
2022-10-10T01:11:16.306Z,100.00
2022-10-10T01:13:54.612Z,100.00
2022-10-10T01:16:36.076Z,100.00
2022-10-10T01:19:14.437Z,100.00
2022-10-10T01:21:59.852Z,100.00
2022-10-10T01:24:45.493Z,100.00
2022-10-10T01:27:34.942Z,100.00
2022-10-10T01:30:23.636Z,100.00
2022-10-10T01:32:54.545Z,100.00
2022-10-10T01:35:34.018Z,99.31
2022-10-10T01:38:27.839Z,98.89
2022-10-10T01:41:03.079Z,97.49
2022-10-10T01:43:30.116Z,96.90
2022-10-10T01:45:56.923Z,95.65
2022-10-10T01:48:28.963Z,96.31
2022-10-10T01:51:04.652Z,97.09
2022-10-10T01:54:03.302Z,97.80
2022-10-10T01:56:38.834Z,97.46
2022-10-10T01:59:07.957Z,97.07
2022-10-10T02:02:12.231Z,96.35
2022-10-10T02:04:48.553Z,95.95
2022-10-10T02:07:23.833Z,95.54
2022-10-10T02:09:52.818Z,95.37
2022-10-10T02:12:22.120Z,96.25
2022-10-10T02:14:54.490Z,95.19
2022-10-10T02:17:24.432Z,95.51
2022-10-10T02:19:54.704Z,95.83
2022-10-10T02:22:23.702Z,96.07
2022-10-10T02:24:52.786Z,96.64
2022-10-10T02:27:35.035Z,97.13
2022-10-10T02:30:03.976Z,96.51
2022-10-10T02:32:44.501Z,95.12
2022-10-10T02:35:24.812Z,94.53
2022-10-10T02:37:52.994Z,95.30
2022-10-10T02:40:24.680Z,95.62
2022-10-10T02:42:53.408Z,97.11
2022-10-10T02:45:21.653Z,97.36
2022-10-10T02:47:48.166Z,98.56
2022-10-10T02:50:14.642Z,98.38
2022-10-10T02:52:41.304Z,99.05
2022-10-10T02:55:08.183Z,99.31
2022-10-10T02:57:34.729Z,99.33
2022-10-10T03:00:01.795Z,100.00
2022-10-10T03:02:28.319Z,100.00
2022-10-10T03:04:54.800Z,100.00
2022-10-10T03:07:21.315Z,100.00
2022-10-10T03:09:47.838Z,100.00
2022-10-10T03:12:14.338Z,100.00
2022-10-10T03:14:40.881Z,100.00
2022-10-10T03:17:07.507Z,100.00
2022-10-10T03:19:34.058Z,100.00
2022-10-10T03:22:00.678Z,100.00
2022-10-10T03:24:27.637Z,100.00
2022-10-10T03:26:54.346Z,100.00
2022-10-10T03:29:20.875Z,100.00
2022-10-10T03:31:47.454Z,100.00
2022-10-10T03:34:14.040Z,100.00
2022-10-10T03:36:40.586Z,100.00
2022-10-10T03:39:09.303Z,100.00
2022-10-10T03:41:36.536Z,100.00
2022-10-10T03:44:03.204Z,100.00
2022-10-10T03:46:29.777Z,100.00
2022-10-10T03:48:56.262Z,100.00
2022-10-10T03:51:23.211Z,100.00
2022-10-10T03:53:49.825Z,100.00
2022-10-10T03:56:16.423Z,100.00
2022-10-10T03:58:42.932Z,100.00
2022-10-10T04:01:09.657Z,100.00
2022-10-10T04:03:36.190Z,100.00
2022-10-10T04:06:02.756Z,100.00
2022-10-10T04:08:30.645Z,100.00
2022-10-10T04:10:57.506Z,100.00
2022-10-10T04:13:28.061Z,100.00
2022-10-10T04:15:56.174Z,100.00
2022-10-10T04:18:23.497Z,100.00
2022-10-10T04:20:50.070Z,100.00
2022-10-10T04:23:16.813Z,100.00
2022-10-10T04:25:44.245Z,100.00
2022-10-10T04:28:15.692Z,100.00
2022-10-10T04:30:42.712Z,100.00
2022-10-10T04:33:09.281Z,100.00
2022-10-10T04:35:37.237Z,100.00
2022-10-10T04:38:04.661Z,100.00
2022-10-10T04:40:31.186Z,100.00
2022-10-10T04:42:57.773Z,100.00
2022-10-10T04:45:27.834Z,100.00
2022-10-10T04:47:54.901Z,100.00
2022-10-10T04:50:22.864Z,100.00
2022-10-10T04:52:49.749Z,100.00
2022-10-10T04:55:16.733Z,100.00
2022-10-10T04:57:43.305Z,100.00
2022-10-10T05:00:10.523Z,100.00
2022-10-10T05:02:37.219Z,100.00
2022-10-10T05:05:04.484Z,100.00
2022-10-10T05:07:31.082Z,100.00
2022-10-10T05:09:58.099Z,100.00
2022-10-10T05:12:24.907Z,100.00
2022-10-10T05:14:51.381Z,100.00
2022-10-10T05:17:17.976Z,100.00
2022-10-10T05:19:44.549Z,100.00
2022-10-10T05:22:11.060Z,100.00
2022-10-10T05:24:37.590Z,100.00
2022-10-10T05:27:04.234Z,100.00
2022-10-10T05:29:30.753Z,100.00
2022-10-10T05:31:57.283Z,100.00
2022-10-10T05:34:23.799Z,100.00
2022-10-10T05:36:50.349Z,100.00
2022-10-10T05:39:16.888Z,100.00
2022-10-10T05:41:43.617Z,100.00
2022-10-10T05:44:10.195Z,100.00
2022-10-10T05:46:36.749Z,100.00
2022-10-10T05:49:03.534Z,100.00
2022-10-10T05:51:30.062Z,100.00
2022-10-10T05:53:57.472Z,100.00
2022-10-10T05:56:24.081Z,100.00
2022-10-10T05:58:51.625Z,100.00
2022-10-10T06:01:18.198Z,100.00
2022-10-10T06:03:44.736Z,100.00
2022-10-10T06:06:11.294Z,100.00
2022-10-10T06:08:37.768Z,100.00
2022-10-10T06:11:08.206Z,100.00
2022-10-10T06:13:35.159Z,100.00
2022-10-10T06:16:01.736Z,100.00
2022-10-10T06:18:28.301Z,100.00
2022-10-10T06:20:55.282Z,100.00
2022-10-10T06:23:21.874Z,100.00
2022-10-10T06:25:51.853Z,100.00
2022-10-10T06:28:18.517Z,100.00
2022-10-10T06:30:48.408Z,100.00
2022-10-10T06:33:16.127Z,100.00
2022-10-10T06:35:44.100Z,100.00
2022-10-10T06:38:11.380Z,100.00
2022-10-10T06:40:39.342Z,100.00
2022-10-10T06:43:11.839Z,100.00
2022-10-10T06:45:40.354Z,100.00
2022-10-10T06:48:07.628Z,100.00
2022-10-10T06:50:34.539Z,100.00
2022-10-10T06:53:02.525Z,100.00
2022-10-10T06:55:29.330Z,100.00
2022-10-10T06:57:56.132Z,100.00
2022-10-10T07:00:22.717Z,100.00
2022-10-10T07:02:49.585Z,100.00
2022-10-10T07:05:18.202Z,100.00
2022-10-10T07:07:45.838Z,100.00
2022-10-10T07:10:14.246Z,100.00
2022-10-10T07:12:44.834Z,100.00
2022-10-10T07:15:12.020Z,100.00
2022-10-10T07:17:38.778Z,99.18
2022-10-10T07:20:05.708Z,94.70
2022-10-10T07:22:32.308Z,93.63
2022-10-10T07:24:58.869Z,92.41
2022-10-10T07:27:25.522Z,91.41
2022-10-10T07:29:52.103Z,89.55
2022-10-10T07:32:18.695Z,87.76
2022-10-10T07:34:45.216Z,87.83
2022-10-10T07:37:11.699Z,86.61
2022-10-10T07:39:38.354Z,84.86
2022-10-10T07:42:04.995Z,82.37
2022-10-10T07:44:34.602Z,81.65
2022-10-10T07:47:01.497Z,80.29
2022-10-10T07:49:28.083Z,79.73
2022-10-10T07:51:58.702Z,77.52
2022-10-10T07:54:28.555Z,77.56
2022-10-10T07:56:55.229Z,74.88
2022-10-10T07:59:22.618Z,74.87
2022-10-10T08:01:49.269Z,73.30
2022-10-10T08:04:16.233Z,73.86
2022-10-10T08:06:42.872Z,73.66
2022-10-10T08:09:09.684Z,72.92
2022-10-10T08:11:36.355Z,72.09
2022-10-10T08:14:03.343Z,71.96
2022-10-10T08:16:29.953Z,72.15
2022-10-10T08:18:56.638Z,71.73
2022-10-10T08:21:23.648Z,71.24
2022-10-10T08:23:50.254Z,71.43
2022-10-10T08:26:20.051Z,70.23
2022-10-10T08:28:48.738Z,69.39
2022-10-10T08:31:18.765Z,69.24
2022-10-10T08:33:46.341Z,69.32
2022-10-10T08:36:22.085Z,70.46
2022-10-10T08:38:49.883Z,70.28
2022-10-10T08:41:37.777Z,68.82
2022-10-10T08:44:14.383Z,69.68
2022-10-10T08:46:52.334Z,70.20
2022-10-10T08:49:34.485Z,69.53
2022-10-10T08:52:18.890Z,68.45
2022-10-10T08:54:47.925Z,68.53
2022-10-10T08:57:24.896Z,68.91
2022-10-10T08:59:56.467Z,69.66
2022-10-10T09:02:53.075Z,70.11
2022-10-10T09:05:33.226Z,69.86
2022-10-10T09:08:13.986Z,69.60
2022-10-10T09:10:54.710Z,68.45
2022-10-10T09:13:34.146Z,68.27
2022-10-10T09:16:13.779Z,68.02
2022-10-10T09:18:59.762Z,68.30
2022-10-10T09:21:31.611Z,68.50
2022-10-10T09:24:09.954Z,67.89
2022-10-10T09:26:44.125Z,67.31
2022-10-10T09:29:27.232Z,65.96
2022-10-10T09:32:10.364Z,65.78
2022-10-10T09:34:45.623Z,66.77
2022-10-10T09:37:35.578Z,65.63
2022-10-10T09:40:13.344Z,64.30
2022-10-10T09:42:40.123Z,64.70
2022-10-10T09:45:20.005Z,64.10
2022-10-10T09:47:54.049Z,64.66
2022-10-10T09:50:21.420Z,64.97
2022-10-10T09:52:48.486Z,64.47
2022-10-10T09:55:33.882Z,64.50
2022-10-10T09:58:25.395Z,65.04
2022-10-10T10:00:53.845Z,64.94
2022-10-10T10:03:22.754Z,63.72
2022-10-10T10:06:01.392Z,63.02
2022-10-10T10:08:30.691Z,63.11
2022-10-10T10:10:58.589Z,62.60
2022-10-10T10:13:37.760Z,61.98
2022-10-10T10:16:09.003Z,61.89
2022-10-10T10:18:43.543Z,60.50
2022-10-10T10:21:23.553Z,61.00
2022-10-10T10:23:56.114Z,61.66
2022-10-10T10:26:43.830Z,61.40
2022-10-10T10:29:31.750Z,62.66
2022-10-10T10:32:12.876Z,62.70
2022-10-10T10:35:02.742Z,61.77
2022-10-10T10:37:47.313Z,61.14
2022-10-10T10:40:31.252Z,60.99
2022-10-10T10:43:19.514Z,61.71
2022-10-10T10:45:48.675Z,61.00
2022-10-10T10:48:24.060Z,60.88
2022-10-10T10:51:05.360Z,61.16
2022-10-10T10:53:59.929Z,61.09
2022-10-10T10:56:39.318Z,60.91
2022-10-10T11:00:16.508Z,59.89
2022-10-10T11:02:43.709Z,59.45
2022-10-10T11:05:40.537Z,59.49
2022-10-10T11:08:36.129Z,57.91
2022-10-10T11:11:40.086Z,59.66
2022-10-10T11:14:09.600Z,60.43
2022-10-10T11:16:48.283Z,59.60
2022-10-10T11:19:15.541Z,60.61
2022-10-10T11:21:49.947Z,59.86
2022-10-10T11:24:35.627Z,58.68
2022-10-10T11:27:09.986Z,58.97
2022-10-10T11:29:51.476Z,59.10
2022-10-10T11:32:26.739Z,59.75
2022-10-10T11:35:07.657Z,59.54
2022-10-10T11:37:40.223Z,59.98
2022-10-10T11:40:23.961Z,59.96
2022-10-10T11:42:56.595Z,60.74
2022-10-10T11:45:30.196Z,60.19
2022-10-10T11:48:22.840Z,61.06
2022-10-10T11:50:55.287Z,60.23
2022-10-10T11:53:37.819Z,60.69
2022-10-10T11:56:39.917Z,61.10
2022-10-10T11:59:24.243Z,60.77
2022-10-10T12:01:55.122Z,60.13
2022-10-10T12:04:22.915Z,60.66
2022-10-10T12:07:14.168Z,59.65
2022-10-10T12:09:46.966Z,60.04
2022-10-10T12:12:19.226Z,60.36
2022-10-10T12:14:53.982Z,60.38
2022-10-10T12:17:24.789Z,60.25
2022-10-10T12:19:52.067Z,59.28
2022-10-10T12:22:37.345Z,59.57
2022-10-10T12:25:06.982Z,59.69
2022-10-10T12:28:03.202Z,60.82
2022-10-10T12:30:30.304Z,61.58
2022-10-10T12:32:57.545Z,61.70
2022-10-10T12:35:33.320Z,61.88
2022-10-10T12:38:05.979Z,62.73
2022-10-10T12:40:33.713Z,62.82
2022-10-10T12:43:21.286Z,63.17
2022-10-10T12:46:08.227Z,61.84
2022-10-10T12:48:35.607Z,62.15
2022-10-10T12:51:02.448Z,62.65
2022-10-10T12:53:33.046Z,64.17
2022-10-10T12:56:03.248Z,63.50
2022-10-10T12:58:34.014Z,62.88
2022-10-10T13:01:04.433Z,63.32
2022-10-10T13:03:46.764Z,62.94
2022-10-10T13:06:38.923Z,63.52
2022-10-10T13:09:11.657Z,64.02
2022-10-10T13:12:30.742Z,64.32
2022-10-10T13:14:57.618Z,64.78
2022-10-10T13:17:36.482Z,64.85
2022-10-10T13:20:05.750Z,64.69
2022-10-10T13:22:34.097Z,64.91
2022-10-10T13:25:01.070Z,64.97
2022-10-10T13:27:35.006Z,65.64
2022-10-10T13:30:02.222Z,65.26
2022-10-10T13:32:32.584Z,65.74
2022-10-10T13:35:02.125Z,67.10
2022-10-10T13:37:30.323Z,65.10
2022-10-10T13:39:57.253Z,66.05
2022-10-10T13:42:36.961Z,66.08
2022-10-10T13:45:29.474Z,66.18
2022-10-10T13:48:03.050Z,66.75
2022-10-10T13:50:32.592Z,66.54
2022-10-10T13:53:31.729Z,66.86
2022-10-10T13:56:28.047Z,66.85
2022-10-10T13:59:08.654Z,67.58
2022-10-10T14:01:47.482Z,68.74
2022-10-10T14:04:15.532Z,68.49
2022-10-10T14:07:01.892Z,69.75
2022-10-10T14:09:37.462Z,70.71
2022-10-10T14:12:06.930Z,70.28
2022-10-10T14:14:47.622Z,71.87
2022-10-10T14:17:15.188Z,72.74
2022-10-10T14:19:45.094Z,73.49
2022-10-10T14:22:11.770Z,73.21
2022-10-10T14:24:38.477Z,74.16
2022-10-10T14:27:13.506Z,74.70
2022-10-10T14:29:40.179Z,74.61
2022-10-10T14:32:06.692Z,74.46
2022-10-10T14:34:33.214Z,74.05
2022-10-10T14:36:59.712Z,73.55
2022-10-10T14:39:26.260Z,74.27
2022-10-10T14:41:52.791Z,74.47
2022-10-10T14:44:19.311Z,74.34
2022-10-10T14:46:45.844Z,75.14
2022-10-10T14:49:19.490Z,74.51
2022-10-10T14:51:47.444Z,75.39
2022-10-10T14:54:14.527Z,75.41
2022-10-10T14:57:07.879Z,76.03
2022-10-10T14:59:45.981Z,76.17
2022-10-10T15:02:15.466Z,76.49
2022-10-10T15:04:41.996Z,76.46
2022-10-10T15:07:14.919Z,77.10
2022-10-10T15:10:02.606Z,76.52
2022-10-10T15:12:30.311Z,76.86
2022-10-10T15:14:57.024Z,76.73
2022-10-10T15:17:25.528Z,77.53
2022-10-10T15:19:52.304Z,77.10
2022-10-10T15:22:19.330Z,76.85
2022-10-10T15:24:45.893Z,78.05
2022-10-10T15:27:12.704Z,77.91
2022-10-10T15:29:39.665Z,78.60
2022-10-10T15:32:06.277Z,78.85
2022-10-10T15:34:33.033Z,79.28
2022-10-10T15:36:59.578Z,79.73
2022-10-10T15:39:26.216Z,80.59
2022-10-10T15:41:52.723Z,80.07
2022-10-10T15:44:19.421Z,81.12
2022-10-10T15:46:46.358Z,80.46
2022-10-10T15:49:13.911Z,81.68
2022-10-10T15:51:45.945Z,82.16
2022-10-10T15:54:13.234Z,81.40
2022-10-10T15:56:40.177Z,82.30
2022-10-10T15:59:08.385Z,82.54
2022-10-10T16:01:35.744Z,83.04
2022-10-10T16:04:03.805Z,83.08
2022-10-10T16:06:30.386Z,83.46
2022-10-10T16:09:16.442Z,83.53
2022-10-10T16:11:43.420Z,84.08
2022-10-10T16:14:10.199Z,84.20
2022-10-10T16:16:36.787Z,84.83
2022-10-10T16:19:03.570Z,84.99
2022-10-10T16:21:30.559Z,85.37
2022-10-10T16:23:58.250Z,85.64
2022-10-10T16:26:29.227Z,86.40
2022-10-10T16:28:56.779Z,87.29
2022-10-10T16:31:23.327Z,86.93
2022-10-10T16:33:49.881Z,87.39
2022-10-10T16:36:28.390Z,88.53
2022-10-10T16:38:57.499Z,88.45
2022-10-10T16:41:46.394Z,88.43
2022-10-10T16:44:13.442Z,89.37
2022-10-10T16:46:39.923Z,89.63
2022-10-10T16:49:06.413Z,90.21
2022-10-10T16:51:32.989Z,90.49
2022-10-10T16:54:01.623Z,90.84
2022-10-10T16:56:28.897Z,90.98
2022-10-10T16:58:55.705Z,90.46
2022-10-10T17:01:23.492Z,90.62
2022-10-10T17:03:51.175Z,90.74
2022-10-10T17:06:21.182Z,91.32
2022-10-10T17:08:49.529Z,91.35
2022-10-10T17:11:17.936Z,91.11
2022-10-10T17:13:44.794Z,91.55
2022-10-10T17:16:53.612Z,91.68
2022-10-10T17:19:03.190Z,92.31
2022-10-10T17:21:29.920Z,92.84
2022-10-10T17:23:56.405Z,92.20
2022-10-10T17:26:23.344Z,93.14
2022-10-10T17:28:50.769Z,93.26
2022-10-10T17:31:17.803Z,93.11
2022-10-10T17:33:50.999Z,93.00
2022-10-10T17:36:23.125Z,93.70
2022-10-10T17:38:49.642Z,92.89
2022-10-10T17:41:17.573Z,94.20
2022-10-10T17:43:44.502Z,93.40
2022-10-10T17:46:33.899Z,94.57
2022-10-10T17:49:01.303Z,94.01
2022-10-10T17:51:27.955Z,94.71
2022-10-10T17:53:54.486Z,94.78
2022-10-10T17:56:22.643Z,95.05
2022-10-10T17:58:50.497Z,95.12
2022-10-10T18:01:19.384Z,95.78
2022-10-10T18:03:46.164Z,95.45
2022-10-10T18:06:15.802Z,94.60
2022-10-10T18:08:42.523Z,93.80
2022-10-10T18:11:14.134Z,92.61
2022-10-10T18:13:40.944Z,92.20
2022-10-10T18:16:13.492Z,92.08
2022-10-10T18:18:41.208Z,91.80
2022-10-10T18:21:09.452Z,92.16
2022-10-10T18:23:36.843Z,91.86
2022-10-10T18:26:11.120Z,92.70
2022-10-10T18:28:40.030Z,91.23
2022-10-10T18:31:13.551Z,91.52
2022-10-10T18:33:41.744Z,90.76
2022-10-10T18:36:09.465Z,91.21
2022-10-10T18:38:36.053Z,91.45
2022-10-10T18:41:07.678Z,91.30
2022-10-10T18:43:35.046Z,91.53
2022-10-10T18:46:02.677Z,91.49
2022-10-10T18:48:29.790Z,91.46
2022-10-10T18:51:01.780Z,91.58
2022-10-10T18:53:29.147Z,90.98
2022-10-10T18:55:58.157Z,90.29
2022-10-10T18:58:24.690Z,90.82
2022-10-10T19:00:51.212Z,89.89
2022-10-10T19:03:17.832Z,89.58
2022-10-10T19:05:44.303Z,89.87
2022-10-10T19:08:10.840Z,89.52
2022-10-10T19:10:44.952Z,89.83
2022-10-10T19:13:12.371Z,89.52
2022-10-10T19:15:39.128Z,90.02
2022-10-10T19:18:06.317Z,90.01
2022-10-10T19:20:33.023Z,90.54
2022-10-10T19:22:59.864Z,91.05
2022-10-10T19:25:29.881Z,89.95
2022-10-10T19:27:56.967Z,90.42
2022-10-10T19:30:23.738Z,90.96
2022-10-10T19:32:50.386Z,90.96
2022-10-10T19:35:16.969Z,91.02
2022-10-10T19:37:43.472Z,91.12
2022-10-10T19:40:10.510Z,90.94
2022-10-10T19:42:37.038Z,91.01
2022-10-10T19:45:03.949Z,90.34
2022-10-10T19:47:30.460Z,90.58
2022-10-10T19:49:57.012Z,90.58
2022-10-10T19:52:23.609Z,90.52
2022-10-10T19:54:50.118Z,90.42
2022-10-10T19:57:16.758Z,90.21
2022-10-10T19:59:43.367Z,89.95
2022-10-10T20:02:11.173Z,90.10
2022-10-10T20:04:37.745Z,90.21
2022-10-10T20:07:04.259Z,89.61
2022-10-10T20:09:30.767Z,88.85
2022-10-10T20:11:57.281Z,89.26
2022-10-10T20:14:24.094Z,88.65
2022-10-10T20:16:50.605Z,88.62
2022-10-10T20:19:17.256Z,88.34
2022-10-10T20:21:43.806Z,88.39
2022-10-10T20:24:10.399Z,88.74
2022-10-10T20:26:37.289Z,88.36
2022-10-10T20:29:04.359Z,88.31
2022-10-10T20:31:33.415Z,88.36
2022-10-10T20:34:01.640Z,88.75
2022-10-10T20:36:30.474Z,89.01
2022-10-10T20:39:04.733Z,88.18
2022-10-10T20:41:33.770Z,88.81
2022-10-10T20:44:03.248Z,89.02
2022-10-10T20:46:33.293Z,89.41
2022-10-10T20:49:01.451Z,89.44
2022-10-10T20:51:28.459Z,89.45
2022-10-10T20:53:58.515Z,89.69
2022-10-10T20:56:26.485Z,89.00
2022-10-10T20:58:54.084Z,89.50
2022-10-10T21:01:24.080Z,89.36
2022-10-10T21:03:50.645Z,89.22
2022-10-10T21:06:20.011Z,88.88
2022-10-10T21:08:46.647Z,89.61
2022-10-10T21:11:15.140Z,89.62
2022-10-10T21:13:43.975Z,89.88
2022-10-10T21:16:13.708Z,90.57
2022-10-10T21:18:43.014Z,90.11
2022-10-10T21:21:13.600Z,89.82
2022-10-10T21:23:45.424Z,89.72
2022-10-10T21:26:14.863Z,89.35
2022-10-10T21:28:41.756Z,90.01
2022-10-10T21:31:12.962Z,90.70
2022-10-10T21:33:39.445Z,90.96
2022-10-10T21:36:06.481Z,91.72
2022-10-10T21:38:33.380Z,92.32
2022-10-10T21:41:08.120Z,92.84
2022-10-10T21:43:37.396Z,93.06
2022-10-10T21:46:06.291Z,93.76
2022-10-10T21:48:33.804Z,94.18
2022-10-10T21:51:00.759Z,95.17
2022-10-10T21:53:27.894Z,95.00
2022-10-10T21:55:55.239Z,95.47
2022-10-10T21:58:23.357Z,95.47
2022-10-10T22:00:50.035Z,95.80
2022-10-10T22:03:16.614Z,96.43
2022-10-10T22:05:44.753Z,96.96
2022-10-10T22:08:11.579Z,96.64
2022-10-10T22:10:40.872Z,96.79
2022-10-10T22:13:07.817Z,97.05
2022-10-10T22:15:34.387Z,97.19
2022-10-10T22:18:00.862Z,97.20
2022-10-10T22:20:27.419Z,98.16
2022-10-10T22:22:53.936Z,99.27
2022-10-10T22:25:20.506Z,99.24
2022-10-10T22:27:46.990Z,99.10
2022-10-10T22:30:15.835Z,99.77
2022-10-10T22:32:42.302Z,100.00
2022-10-10T22:35:09.098Z,100.00
2022-10-10T22:37:37.352Z,100.00
2022-10-10T22:40:04.506Z,100.00
2022-10-10T22:42:31.038Z,100.00
2022-10-10T22:44:57.555Z,100.00
2022-10-10T22:47:24.095Z,100.00
2022-10-10T22:49:50.604Z,100.00
2022-10-10T22:52:17.210Z,100.00
2022-10-10T22:54:43.785Z,100.00
2022-10-10T22:57:11.014Z,100.00
2022-10-10T22:59:37.842Z,100.00
2022-10-10T23:02:04.380Z,100.00
2022-10-10T23:04:31.086Z,100.00
2022-10-10T23:06:57.606Z,100.00
2022-10-10T23:09:24.222Z,100.00
2022-10-10T23:11:50.735Z,100.00
2022-10-10T23:14:18.749Z,100.00
2022-10-10T23:16:45.400Z,100.00
2022-10-10T23:19:11.932Z,100.00
2022-10-10T23:21:38.485Z,100.00
2022-10-10T23:24:05.394Z,100.00
2022-10-10T23:26:31.980Z,100.00
2022-10-10T23:28:58.535Z,100.00
2022-10-10T23:31:25.117Z,100.00
2022-10-10T23:33:51.577Z,100.00
2022-10-10T23:36:18.078Z,100.00
2022-10-10T23:38:44.661Z,100.00
2022-10-10T23:41:11.816Z,100.00
2022-10-10T23:43:38.409Z,100.00
2022-10-10T23:46:05.215Z,100.00
2022-10-10T23:48:32.039Z,100.00
2022-10-10T23:50:58.632Z,100.00
2022-10-10T23:53:25.175Z,100.00
2022-10-10T23:55:51.771Z,100.00
2022-10-10T23:58:18.262Z,100.00
